サル島 の空港の天気 - METARとTAF

アミルカル・カブラル国際空港 ( GVAC / SID ) - カーボベルデ サル島
飛行場実況気象(Metar)
観測時間09/22 23:00 CVT (09/23 00:00 UTC)
風向・風速北北東 7m/s
視程7000m
天気現象
全天の8割程度の雲 雲底高度 430m
気温26℃
湿度74%
気圧1014hPa
METARGVAC 230000Z 03013KT 7000 BKN014 26/21 Q1014 NOSIG
過去の天気等 Google飛行場航空写真 Wunderground天気予報

過去48時間のMETAR

飛行場予報(TAF)
発表時間: 9/22 22:00 CVT (9/22 23:00 UTC)
予報対象時間: 22日23時 CVT ~ 24日5時 CVT
風向・風速北北東 7m/s
視程10km以上
全天の8割程度の雲 雲底高度 430m
23日7時 CVT ~ 23日11時 CVT に一時的に
全天の4割程度の雲 雲底高度 430m
TAF GVAC 222300Z 2300/2406 03014KT 9999 BKN014
TEMPO 2308/2312 SCT014